KEWK/EWK METAR and TAF weather

Enter ICAO airport designator
Station Type Date Time Source
KEWK METAR 2021/01/17 17:56 UTC NOAA

KEWK 171756Z AUTO 32016G24KT 10SM CLR 07/M05 A3001 RMK AO2 PK WND 31026/1719 SLP169 T00671050 10067 20000 58001


Station Type Date Time Source
KEWK Decoded METAR 2021/01/17 17:56 UTC NOAA

Newton, Newton City/County Airport, KS, United States (KEWK) 38-03N 097-17W
Jan 17, 2021 - 12:56 PM EST / 2021.01.17 1756 UTC
Wind: from the NW (320 degrees) at 18 MPH (16 KT) gusting to 28 MPH (24 KT):0
Visibility: 10 mile(s):0
Sky conditions: clear
Temperature: 44.1 F (6.7 C)
Dew Point: 23.0 F (-5.0 C)
Relative Humidity: 42%
Pressure (altimeter): 30.01 in. Hg (1016 hPa)
Pressure tendency: 0.00 inches (0.1 hPa) lower than three hours ago
ob: KEWK 171756Z AUTO 32016G24KT 10SM CLR 07/M05 A3001 RMK AO2 PK WND 31026/1719 SLP169 T00671050 10067 20000 58001
cycle: 18

Station Type Date Time Source
KEWK TAF UTC NOAA

Error!

Example: see airport list